sensor_id;sensor_type;location;lat;lon;timestamp;P1;durP1;ratioP1;P2;durP2;ratioP2
19253;SDS011;9761;50.926;5.330;2022-11-27T00:00:59;10.73;;;3.77;;
19253;SDS011;9761;50.926;5.330;2022-11-27T00:03:33;7.73;;;3.83;;
19253;SDS011;9761;50.926;5.330;2022-11-27T00:06:02;8.13;;;3.70;;
19253;SDS011;9761;50.926;5.330;2022-11-27T00:08:37;11.80;;;4.37;;
19253;SDS011;9761;50.926;5.330;2022-11-27T00:11:05;8.47;;;4.10;;
19253;SDS011;9761;50.926;5.330;2022-11-27T00:13:34;9.87;;;4.43;;
19253;SDS011;9761;50.926;5.330;2022-11-27T00:16:01;7.73;;;4.50;;
19253;SDS011;9761;50.926;5.330;2022-11-27T00:18:28;11.33;;;4.00;;
19253;SDS011;9761;50.926;5.330;2022-11-27T00:21:00;11.90;;;4.67;;
19253;SDS011;9761;50.926;5.330;2022-11-27T00:23:28;10.80;;;4.70;;
19253;SDS011;9761;50.926;5.330;2022-11-27T00:25:55;10.83;;;4.57;;
19253;SDS011;9761;50.926;5.330;2022-11-27T00:28:22;9.20;;;4.43;;
19253;SDS011;9761;50.926;5.330;2022-11-27T00:30:50;11.03;;;4.87;;
19253;SDS011;9761;50.926;5.330;2022-11-27T00:33:17;13.37;;;4.53;;
19253;SDS011;9761;50.926;5.330;2022-11-27T00:35:44;13.33;;;4.60;;
19253;SDS011;9761;50.926;5.330;2022-11-27T00:38:11;9.73;;;4.87;;
19253;SDS011;9761;50.926;5.330;2022-11-27T00:40:38;14.53;;;5.07;;
19253;SDS011;9761;50.926;5.330;2022-11-27T00:43:05;11.10;;;4.90;;
19253;SDS011;9761;50.926;5.330;2022-11-27T00:45:32;9.20;;;4.97;;
19253;SDS011;9761;50.926;5.330;2022-11-27T00:48:00;10.37;;;4.53;;
19253;SDS011;9761;50.926;5.330;2022-11-27T00:50:27;9.67;;;5.60;;
19253;SDS011;9761;50.926;5.330;2022-11-27T00:52:56;12.17;;;5.00;;
19253;SDS011;9761;50.926;5.330;2022-11-27T00:55:23;12.73;;;5.47;;
19253;SDS011;9761;50.926;5.330;2022-11-27T00:57:50;10.97;;;5.80;;
19253;SDS011;9761;50.926;5.330;2022-11-27T01:00:17;12.37;;;4.87;;
19253;SDS011;9761;50.926;5.330;2022-11-27T01:02:46;13.87;;;5.63;;
19253;SDS011;9761;50.926;5.330;2022-11-27T01:05:14;14.00;;;5.43;;
19253;SDS011;9761;50.926;5.330;2022-11-27T01:07:41;12.70;;;5.63;;
19253;SDS011;9761;50.926;5.330;2022-11-27T01:10:08;10.40;;;5.33;;
19253;SDS011;9761;50.926;5.330;2022-11-27T01:12:35;13.20;;;6.00;;
19253;SDS011;9761;50.926;5.330;2022-11-27T01:15:03;9.83;;;5.83;;
19253;SDS011;9761;50.926;5.330;2022-11-27T01:17:30;11.40;;;6.57;;
19253;SDS011;9761;50.926;5.330;2022-11-27T01:19:57;11.23;;;6.70;;
19253;SDS011;9761;50.926;5.330;2022-11-27T01:22:25;13.07;;;5.83;;
19253;SDS011;9761;50.926;5.330;2022-11-27T01:24:52;11.40;;;6.67;;
19253;SDS011;9761;50.926;5.330;2022-11-27T01:27:19;11.27;;;6.47;;
19253;SDS011;9761;50.926;5.330;2022-11-27T01:29:46;10.83;;;6.83;;
19253;SDS011;9761;50.926;5.330;2022-11-27T01:32:13;12.30;;;6.30;;
19253;SDS011;9761;50.926;5.330;2022-11-27T01:34:40;8.57;;;5.63;;
19253;SDS011;9761;50.926;5.330;2022-11-27T01:37:07;10.87;;;5.40;;
19253;SDS011;9761;50.926;5.330;2022-11-27T01:39:35;10.20;;;5.30;;
19253;SDS011;9761;50.926;5.330;2022-11-27T01:42:02;12.33;;;5.93;;
19253;SDS011;9761;50.926;5.330;2022-11-27T01:44:49;11.47;;;5.27;;
19253;SDS011;9761;50.926;5.330;2022-11-27T01:47:25;10.90;;;5.93;;
19253;SDS011;9761;50.926;5.330;2022-11-27T01:50:02;10.80;;;4.77;;
19253;SDS011;9761;50.926;5.330;2022-11-27T01:52:34;8.93;;;4.90;;
19253;SDS011;9761;50.926;5.330;2022-11-27T01:55:06;7.37;;;4.87;;
19253;SDS011;9761;50.926;5.330;2022-11-27T01:57:38;10.17;;;4.73;;
19253;SDS011;9761;50.926;5.330;2022-11-27T02:00:10;7.67;;;4.70;;
19253;SDS011;9761;50.926;5.330;2022-11-27T02:02:41;9.80;;;5.27;;
19253;SDS011;9761;50.926;5.330;2022-11-27T02:05:10;11.90;;;5.57;;
19253;SDS011;9761;50.926;5.330;2022-11-27T02:07:40;9.80;;;4.40;;
19253;SDS011;9761;50.926;5.330;2022-11-27T02:10:09;8.10;;;4.27;;
19253;SDS011;9761;50.926;5.330;2022-11-27T02:12:39;8.80;;;4.47;;
19253;SDS011;9761;50.926;5.330;2022-11-27T02:15:13;9.70;;;4.37;;
19253;SDS011;9761;50.926;5.330;2022-11-27T02:17:47;7.70;;;4.30;;
19253;SDS011;9761;50.926;5.330;2022-11-27T02:20:23;8.70;;;3.67;;
19253;SDS011;9761;50.926;5.330;2022-11-27T02:23:08;9.17;;;4.00;;
19253;SDS011;9761;50.926;5.330;2022-11-27T02:25:56;5.80;;;3.60;;
19253;SDS011;9761;50.926;5.330;2022-11-27T02:28:40;9.30;;;4.00;;
19253;SDS011;9761;50.926;5.330;2022-11-27T02:31:20;5.83;;;3.23;;
19253;SDS011;9761;50.926;5.330;2022-11-27T02:33:53;6.97;;;3.50;;
19253;SDS011;9761;50.926;5.330;2022-11-27T02:36:25;6.80;;;3.50;;
19253;SDS011;9761;50.926;5.330;2022-11-27T02:38:58;5.97;;;3.40;;
19253;SDS011;9761;50.926;5.330;2022-11-27T02:41:28;9.13;;;3.50;;
19253;SDS011;9761;50.926;5.330;2022-11-27T02:44:03;4.97;;;3.30;;
19253;SDS011;9761;50.926;5.330;2022-11-27T02:46:33;6.03;;;3.27;;
19253;SDS011;9761;50.926;5.330;2022-11-27T02:49:01;5.40;;;2.90;;
19253;SDS011;9761;50.926;5.330;2022-11-27T02:51:32;3.10;;;2.33;;
19253;SDS011;9761;50.926;5.330;2022-11-27T02:54:04;5.97;;;2.53;;
19253;SDS011;9761;50.926;5.330;2022-11-27T02:56:33;5.03;;;2.57;;
19253;SDS011;9761;50.926;5.330;2022-11-27T02:59:04;4.53;;;2.60;;
19253;SDS011;9761;50.926;5.330;2022-11-27T03:01:35;4.17;;;2.50;;
19253;SDS011;9761;50.926;5.330;2022-11-27T03:04:08;5.53;;;2.60;;
19253;SDS011;9761;50.926;5.330;2022-11-27T03:06:38;4.03;;;2.60;;
19253;SDS011;9761;50.926;5.330;2022-11-27T03:09:07;4.30;;;2.47;;
19253;SDS011;9761;50.926;5.330;2022-11-27T03:11:38;3.27;;;2.33;;
19253;SDS011;9761;50.926;5.330;2022-11-27T03:14:08;6.67;;;2.30;;
19253;SDS011;9761;50.926;5.330;2022-11-27T03:16:37;5.37;;;2.53;;
19253;SDS011;9761;50.926;5.330;2022-11-27T03:19:10;5.77;;;2.43;;
19253;SDS011;9761;50.926;5.330;2022-11-27T03:21:42;5.53;;;2.37;;
19253;SDS011;9761;50.926;5.330;2022-11-27T03:24:11;3.07;;;2.33;;
19253;SDS011;9761;50.926;5.330;2022-11-27T03:26:39;6.63;;;2.63;;
19253;SDS011;9761;50.926;5.330;2022-11-27T03:29:09;5.13;;;2.77;;
19253;SDS011;9761;50.926;5.330;2022-11-27T03:31:40;4.40;;;2.33;;
19253;SDS011;9761;50.926;5.330;2022-11-27T03:34:07;4.43;;;2.47;;
19253;SDS011;9761;50.926;5.330;2022-11-27T03:36:35;3.40;;;2.50;;
19253;SDS011;9761;50.926;5.330;2022-11-27T03:39:02;5.40;;;2.70;;
19253;SDS011;9761;50.926;5.330;2022-11-27T03:41:33;4.80;;;2.97;;
19253;SDS011;9761;50.926;5.330;2022-11-27T03:44:12;4.70;;;2.47;;
19253;SDS011;9761;50.926;5.330;2022-11-27T03:46:49;5.03;;;2.80;;
19253;SDS011;9761;50.926;5.330;2022-11-27T03:49:28;3.83;;;2.60;;
19253;SDS011;9761;50.926;5.330;2022-11-27T03:52:04;6.07;;;3.20;;
19253;SDS011;9761;50.926;5.330;2022-11-27T03:54:41;10.80;;;3.80;;
19253;SDS011;9761;50.926;5.330;2022-11-27T03:57:16;8.83;;;3.27;;
19253;SDS011;9761;50.926;5.330;2022-11-27T03:59:48;5.87;;;2.90;;
19253;SDS011;9761;50.926;5.330;2022-11-27T04:02:26;7.23;;;3.47;;
19253;SDS011;9761;50.926;5.330;2022-11-27T04:04:55;5.37;;;2.50;;
19253;SDS011;9761;50.926;5.330;2022-11-27T04:07:22;6.23;;;3.03;;
19253;SDS011;9761;50.926;5.330;2022-11-27T04:09:49;7.47;;;2.83;;
19253;SDS011;9761;50.926;5.330;2022-11-27T04:12:16;7.53;;;2.93;;
19253;SDS011;9761;50.926;5.330;2022-11-27T04:14:46;5.07;;;2.63;;
19253;SDS011;9761;50.926;5.330;2022-11-27T04:17:14;7.53;;;3.63;;
19253;SDS011;9761;50.926;5.330;2022-11-27T04:19:41;6.10;;;2.93;;
19253;SDS011;9761;50.926;5.330;2022-11-27T04:22:08;7.40;;;3.00;;
19253;SDS011;9761;50.926;5.330;2022-11-27T04:24:35;6.83;;;3.13;;
19253;SDS011;9761;50.926;5.330;2022-11-27T04:27:02;6.67;;;2.87;;
19253;SDS011;9761;50.926;5.330;2022-11-27T04:29:29;6.40;;;2.93;;
19253;SDS011;9761;50.926;5.330;2022-11-27T04:31:56;6.97;;;2.47;;
19253;SDS011;9761;50.926;5.330;2022-11-27T04:34:24;5.07;;;3.00;;
19253;SDS011;9761;50.926;5.330;2022-11-27T04:36:51;6.40;;;2.40;;
19253;SDS011;9761;50.926;5.330;2022-11-27T04:39:18;6.97;;;3.00;;
19253;SDS011;9761;50.926;5.330;2022-11-27T04:41:45;5.53;;;2.90;;
19253;SDS011;9761;50.926;5.330;2022-11-27T04:44:12;5.83;;;3.07;;
19253;SDS011;9761;50.926;5.330;2022-11-27T04:46:39;6.17;;;2.90;;
19253;SDS011;9761;50.926;5.330;2022-11-27T04:49:06;7.57;;;2.67;;
19253;SDS011;9761;50.926;5.330;2022-11-27T04:51:34;4.13;;;2.60;;
19253;SDS011;9761;50.926;5.330;2022-11-27T04:54:01;7.37;;;3.43;;
19253;SDS011;9761;50.926;5.330;2022-11-27T04:56:28;5.00;;;2.43;;
19253;SDS011;9761;50.926;5.330;2022-11-27T04:58:55;6.53;;;2.87;;
19253;SDS011;9761;50.926;5.330;2022-11-27T05:01:22;5.30;;;3.50;;
19253;SDS011;9761;50.926;5.330;2022-11-27T05:03:49;4.77;;;2.87;;
19253;SDS011;9761;50.926;5.330;2022-11-27T05:06:16;8.17;;;3.17;;
19253;SDS011;9761;50.926;5.330;2022-11-27T05:08:44;6.13;;;3.20;;
19253;SDS011;9761;50.926;5.330;2022-11-27T05:11:12;8.97;;;3.27;;
19253;SDS011;9761;50.926;5.330;2022-11-27T05:13:42;5.20;;;3.13;;
19253;SDS011;9761;50.926;5.330;2022-11-27T05:16:09;5.87;;;2.90;;
19253;SDS011;9761;50.926;5.330;2022-11-27T05:18:36;7.03;;;3.40;;
19253;SDS011;9761;50.926;5.330;2022-11-27T05:21:04;5.27;;;3.00;;
19253;SDS011;9761;50.926;5.330;2022-11-27T05:23:32;6.00;;;2.70;;
19253;SDS011;9761;50.926;5.330;2022-11-27T05:26:01;6.37;;;2.80;;
19253;SDS011;9761;50.926;5.330;2022-11-27T05:28:28;6.63;;;2.80;;
19253;SDS011;9761;50.926;5.330;2022-11-27T05:30:55;8.27;;;2.67;;
19253;SDS011;9761;50.926;5.330;2022-11-27T05:33:23;4.53;;;2.23;;
19253;SDS011;9761;50.926;5.330;2022-11-27T05:35:50;4.13;;;2.30;;
19253;SDS011;9761;50.926;5.330;2022-11-27T05:38:17;7.70;;;2.70;;
19253;SDS011;9761;50.926;5.330;2022-11-27T05:40:44;4.93;;;3.17;;
19253;SDS011;9761;50.926;5.330;2022-11-27T05:43:12;4.70;;;2.57;;
19253;SDS011;9761;50.926;5.330;2022-11-27T05:45:39;4.10;;;2.23;;
19253;SDS011;9761;50.926;5.330;2022-11-27T05:48:06;3.27;;;2.20;;
19253;SDS011;9761;50.926;5.330;2022-11-27T05:50:33;4.00;;;2.20;;
19253;SDS011;9761;50.926;5.330;2022-11-27T05:52:59;3.53;;;2.43;;
19253;SDS011;9761;50.926;5.330;2022-11-27T05:55:26;3.20;;;2.37;;
19253;SDS011;9761;50.926;5.330;2022-11-27T05:57:53;6.60;;;2.53;;
19253;SDS011;9761;50.926;5.330;2022-11-27T06:00:22;4.60;;;2.60;;
19253;SDS011;9761;50.926;5.330;2022-11-27T06:02:51;3.90;;;2.13;;
19253;SDS011;9761;50.926;5.330;2022-11-27T06:05:18;7.43;;;2.73;;
19253;SDS011;9761;50.926;5.330;2022-11-27T06:07:45;4.40;;;2.80;;
19253;SDS011;9761;50.926;5.330;2022-11-27T06:10:11;3.17;;;2.03;;
19253;SDS011;9761;50.926;5.330;2022-11-27T06:12:38;4.80;;;2.57;;
19253;SDS011;9761;50.926;5.330;2022-11-27T06:15:06;4.63;;;2.30;;
19253;SDS011;9761;50.926;5.330;2022-11-27T06:17:34;5.43;;;2.60;;
19253;SDS011;9761;50.926;5.330;2022-11-27T06:20:01;6.90;;;2.87;;
19253;SDS011;9761;50.926;5.330;2022-11-27T06:22:29;6.20;;;2.50;;
19253;SDS011;9761;50.926;5.330;2022-11-27T06:24:56;8.77;;;2.77;;
19253;SDS011;9761;50.926;5.330;2022-11-27T06:27:23;6.17;;;2.67;;
19253;SDS011;9761;50.926;5.330;2022-11-27T06:29:50;3.30;;;2.30;;
19253;SDS011;9761;50.926;5.330;2022-11-27T06:32:18;4.73;;;2.30;;
19253;SDS011;9761;50.926;5.330;2022-11-27T06:34:46;4.57;;;2.47;;
19253;SDS011;9761;50.926;5.330;2022-11-27T06:37:13;2.83;;;2.10;;
19253;SDS011;9761;50.926;5.330;2022-11-27T06:39:40;4.93;;;2.90;;
19253;SDS011;9761;50.926;5.330;2022-11-27T06:42:06;5.93;;;2.43;;
19253;SDS011;9761;50.926;5.330;2022-11-27T06:44:33;3.67;;;2.83;;
19253;SDS011;9761;50.926;5.330;2022-11-27T06:47:00;3.17;;;2.20;;
19253;SDS011;9761;50.926;5.330;2022-11-27T06:49:27;4.80;;;2.60;;
19253;SDS011;9761;50.926;5.330;2022-11-27T06:51:56;5.23;;;2.47;;
19253;SDS011;9761;50.926;5.330;2022-11-27T06:54:23;3.90;;;2.20;;
19253;SDS011;9761;50.926;5.330;2022-11-27T06:56:50;3.97;;;2.60;;
19253;SDS011;9761;50.926;5.330;2022-11-27T06:59:17;6.87;;;2.93;;
19253;SDS011;9761;50.926;5.330;2022-11-27T07:01:44;5.57;;;2.60;;
19253;SDS011;9761;50.926;5.330;2022-11-27T07:04:12;5.97;;;2.37;;
19253;SDS011;9761;50.926;5.330;2022-11-27T07:06:41;6.20;;;2.73;;
19253;SDS011;9761;50.926;5.330;2022-11-27T07:09:10;5.30;;;2.63;;
19253;SDS011;9761;50.926;5.330;2022-11-27T07:11:37;5.37;;;2.57;;
19253;SDS011;9761;50.926;5.330;2022-11-27T07:14:05;4.53;;;2.90;;
19253;SDS011;9761;50.926;5.330;2022-11-27T07:16:32;5.63;;;2.60;;
19253;SDS011;9761;50.926;5.330;2022-11-27T07:19:00;5.23;;;2.93;;
19253;SDS011;9761;50.926;5.330;2022-11-27T07:21:28;4.87;;;2.80;;
19253;SDS011;9761;50.926;5.330;2022-11-27T07:23:56;4.53;;;3.10;;
19253;SDS011;9761;50.926;5.330;2022-11-27T07:26:25;8.80;;;3.53;;
19253;SDS011;9761;50.926;5.330;2022-11-27T07:28:53;5.63;;;2.97;;
19253;SDS011;9761;50.926;5.330;2022-11-27T07:31:21;6.27;;;3.23;;
19253;SDS011;9761;50.926;5.330;2022-11-27T07:33:50;6.87;;;3.40;;
19253;SDS011;9761;50.926;5.330;2022-11-27T07:36:18;5.83;;;3.60;;
19253;SDS011;9761;50.926;5.330;2022-11-27T07:38:46;9.03;;;3.63;;
19253;SDS011;9761;50.926;5.330;2022-11-27T07:41:14;8.33;;;4.60;;
19253;SDS011;9761;50.926;5.330;2022-11-27T07:43:42;8.70;;;4.63;;
19253;SDS011;9761;50.926;5.330;2022-11-27T07:46:11;8.27;;;4.40;;
19253;SDS011;9761;50.926;5.330;2022-11-27T07:48:39;8.87;;;4.30;;
19253;SDS011;9761;50.926;5.330;2022-11-27T07:51:07;6.80;;;4.23;;
19253;SDS011;9761;50.926;5.330;2022-11-27T07:53:35;6.73;;;4.33;;
19253;SDS011;9761;50.926;5.330;2022-11-27T07:56:03;9.43;;;4.60;;
19253;SDS011;9761;50.926;5.330;2022-11-27T07:58:30;8.00;;;5.27;;
19253;SDS011;9761;50.926;5.330;2022-11-27T08:00:59;8.77;;;4.83;;
19253;SDS011;9761;50.926;5.330;2022-11-27T08:03:26;7.97;;;4.47;;
19253;SDS011;9761;50.926;5.330;2022-11-27T08:05:53;6.07;;;4.33;;
19253;SDS011;9761;50.926;5.330;2022-11-27T08:08:20;7.77;;;4.97;;
19253;SDS011;9761;50.926;5.330;2022-11-27T08:10:46;10.20;;;5.30;;
19253;SDS011;9761;50.926;5.330;2022-11-27T08:13:13;7.37;;;5.00;;
19253;SDS011;9761;50.926;5.330;2022-11-27T08:15:40;9.17;;;5.17;;
19253;SDS011;9761;50.926;5.330;2022-11-27T08:18:11;5.90;;;4.60;;
19253;SDS011;9761;50.926;5.330;2022-11-27T08:20:38;10.60;;;5.00;;
19253;SDS011;9761;50.926;5.330;2022-11-27T08:23:05;8.90;;;5.57;;
19253;SDS011;9761;50.926;5.330;2022-11-27T08:25:32;9.57;;;5.67;;
19253;SDS011;9761;50.926;5.330;2022-11-27T08:27:59;7.33;;;4.67;;
19253;SDS011;9761;50.926;5.330;2022-11-27T08:30:26;8.27;;;5.47;;
19253;SDS011;9761;50.926;5.330;2022-11-27T08:32:53;6.93;;;4.90;;
19253;SDS011;9761;50.926;5.330;2022-11-27T08:35:21;8.77;;;5.47;;
19253;SDS011;9761;50.926;5.330;2022-11-27T08:37:48;7.10;;;5.40;;
19253;SDS011;9761;50.926;5.330;2022-11-27T08:40:15;8.80;;;5.47;;
19253;SDS011;9761;50.926;5.330;2022-11-27T08:42:46;9.20;;;5.40;;
19253;SDS011;9761;50.926;5.330;2022-11-27T08:45:13;7.50;;;5.20;;
19253;SDS011;9761;50.926;5.330;2022-11-27T08:47:40;10.77;;;5.50;;
19253;SDS011;9761;50.926;5.330;2022-11-27T08:50:08;11.57;;;6.93;;
19253;SDS011;9761;50.926;5.330;2022-11-27T08:52:37;8.47;;;5.00;;
19253;SDS011;9761;50.926;5.330;2022-11-27T08:55:04;9.40;;;5.43;;
19253;SDS011;9761;50.926;5.330;2022-11-27T08:57:32;8.83;;;4.40;;
19253;SDS011;9761;50.926;5.330;2022-11-27T08:59:59;9.33;;;5.60;;
19253;SDS011;9761;50.926;5.330;2022-11-27T09:02:25;8.77;;;6.10;;
19253;SDS011;9761;50.926;5.330;2022-11-27T09:04:53;8.97;;;4.57;;
19253;SDS011;9761;50.926;5.330;2022-11-27T09:07:20;7.00;;;4.50;;
19253;SDS011;9761;50.926;5.330;2022-11-27T09:09:48;7.33;;;4.23;;
19253;SDS011;9761;50.926;5.330;2022-11-27T09:12:15;6.60;;;4.37;;
19253;SDS011;9761;50.926;5.330;2022-11-27T09:14:42;6.60;;;4.73;;
19253;SDS011;9761;50.926;5.330;2022-11-27T09:17:09;9.13;;;5.47;;
19253;SDS011;9761;50.926;5.330;2022-11-27T09:19:36;8.83;;;4.40;;
19253;SDS011;9761;50.926;5.330;2022-11-27T09:22:03;5.10;;;4.57;;
19253;SDS011;9761;50.926;5.330;2022-11-27T09:24:30;6.33;;;4.23;;
19253;SDS011;9761;50.926;5.330;2022-11-27T09:26:58;10.73;;;5.73;;
19253;SDS011;9761;50.926;5.330;2022-11-27T09:29:25;9.63;;;5.13;;
19253;SDS011;9761;50.926;5.330;2022-11-27T09:31:54;9.37;;;4.87;;
19253;SDS011;9761;50.926;5.330;2022-11-27T09:34:22;7.10;;;4.30;;
19253;SDS011;9761;50.926;5.330;2022-11-27T09:37:00;10.93;;;5.37;;
19253;SDS011;9761;50.926;5.330;2022-11-27T09:39:29;7.10;;;4.90;;
19253;SDS011;9761;50.926;5.330;2022-11-27T09:41:59;9.40;;;5.40;;
19253;SDS011;9761;50.926;5.330;2022-11-27T09:44:29;5.80;;;4.63;;
19253;SDS011;9761;50.926;5.330;2022-11-27T09:47:04;7.70;;;4.93;;
19253;SDS011;9761;50.926;5.330;2022-11-27T09:49:39;7.90;;;5.23;;
19253;SDS011;9761;50.926;5.330;2022-11-27T09:52:10;7.60;;;5.17;;
19253;SDS011;9761;50.926;5.330;2022-11-27T09:54:43;7.60;;;5.50;;
19253;SDS011;9761;50.926;5.330;2022-11-27T09:57:20;6.63;;;4.93;;
19253;SDS011;9761;50.926;5.330;2022-11-27T09:59:53;6.67;;;4.53;;
19253;SDS011;9761;50.926;5.330;2022-11-27T10:02:24;6.20;;;4.13;;
19253;SDS011;9761;50.926;5.330;2022-11-27T10:04:53;8.10;;;4.90;;
19253;SDS011;9761;50.926;5.330;2022-11-27T10:07:26;8.07;;;4.60;;
19253;SDS011;9761;50.926;5.330;2022-11-27T10:10:07;6.27;;;4.30;;
19253;SDS011;9761;50.926;5.330;2022-11-27T10:12:49;7.33;;;4.93;;
19253;SDS011;9761;50.926;5.330;2022-11-27T10:15:30;10.13;;;4.93;;
19253;SDS011;9761;50.926;5.330;2022-11-27T10:18:07;6.53;;;5.07;;
19253;SDS011;9761;50.926;5.330;2022-11-27T10:20:41;7.33;;;4.87;;
19253;SDS011;9761;50.926;5.330;2022-11-27T10:23:14;5.37;;;4.27;;
19253;SDS011;9761;50.926;5.330;2022-11-27T10:25:50;8.03;;;4.90;;
19253;SDS011;9761;50.926;5.330;2022-11-27T10:28:24;6.77;;;5.07;;
19253;SDS011;9761;50.926;5.330;2022-11-27T10:30:57;6.70;;;4.67;;
19253;SDS011;9761;50.926;5.330;2022-11-27T10:33:30;8.00;;;5.00;;
19253;SDS011;9761;50.926;5.330;2022-11-27T10:36:04;7.97;;;5.70;;
19253;SDS011;9761;50.926;5.330;2022-11-27T10:38:36;11.83;;;7.73;;
19253;SDS011;9761;50.926;5.330;2022-11-27T10:41:06;11.37;;;6.00;;
19253;SDS011;9761;50.926;5.330;2022-11-27T10:43:41;9.43;;;5.60;;
19253;SDS011;9761;50.926;5.330;2022-11-27T10:46:08;7.47;;;5.10;;
19253;SDS011;9761;50.926;5.330;2022-11-27T10:48:40;9.70;;;5.80;;
19253;SDS011;9761;50.926;5.330;2022-11-27T10:51:11;7.67;;;4.80;;
19253;SDS011;9761;50.926;5.330;2022-11-27T10:53:41;8.90;;;6.50;;
19253;SDS011;9761;50.926;5.330;2022-11-27T10:56:20;8.30;;;6.23;;
19253;SDS011;9761;50.926;5.330;2022-11-27T10:59:03;9.73;;;5.40;;
19253;SDS011;9761;50.926;5.330;2022-11-27T11:01:40;5.90;;;4.80;;
19253;SDS011;9761;50.926;5.330;2022-11-27T11:04:10;5.83;;;4.67;;
19253;SDS011;9761;50.926;5.330;2022-11-27T11:06:40;6.83;;;5.13;;
19253;SDS011;9761;50.926;5.330;2022-11-27T11:09:12;6.30;;;4.40;;
19253;SDS011;9761;50.926;5.330;2022-11-27T11:11:40;7.60;;;5.47;;
19253;SDS011;9761;50.926;5.330;2022-11-27T11:14:18;6.60;;;4.87;;
19253;SDS011;9761;50.926;5.330;2022-11-27T11:16:48;7.87;;;5.30;;
19253;SDS011;9761;50.926;5.330;2022-11-27T11:19:23;6.80;;;4.50;;
19253;SDS011;9761;50.926;5.330;2022-11-27T11:21:51;5.50;;;4.27;;
19253;SDS011;9761;50.926;5.330;2022-11-27T11:24:23;6.17;;;4.43;;
19253;SDS011;9761;50.926;5.330;2022-11-27T11:26:53;5.43;;;4.50;;
19253;SDS011;9761;50.926;5.330;2022-11-27T11:29:33;4.97;;;4.37;;
19253;SDS011;9761;50.926;5.330;2022-11-27T11:32:05;6.17;;;4.80;;
19253;SDS011;9761;50.926;5.330;2022-11-27T11:34:35;6.10;;;4.23;;
19253;SDS011;9761;50.926;5.330;2022-11-27T11:37:15;5.13;;;4.13;;
19253;SDS011;9761;50.926;5.330;2022-11-27T11:39:50;7.77;;;4.33;;
19253;SDS011;9761;50.926;5.330;2022-11-27T11:42:21;5.87;;;4.27;;
19253;SDS011;9761;50.926;5.330;2022-11-27T11:44:52;7.03;;;5.47;;
19253;SDS011;9761;50.926;5.330;2022-11-27T11:47:21;6.40;;;4.67;;
19253;SDS011;9761;50.926;5.330;2022-11-27T11:49:50;8.37;;;4.90;;
19253;SDS011;9761;50.926;5.330;2022-11-27T11:52:23;7.57;;;4.57;;
19253;SDS011;9761;50.926;5.330;2022-11-27T11:55:02;6.50;;;4.27;;
19253;SDS011;9761;50.926;5.330;2022-11-27T11:57:45;6.77;;;4.33;;
19253;SDS011;9761;50.926;5.330;2022-11-27T12:00:25;6.90;;;4.37;;
19253;SDS011;9761;50.926;5.330;2022-11-27T12:03:12;7.00;;;4.97;;
19253;SDS011;9761;50.926;5.330;2022-11-27T12:05:56;7.57;;;4.33;;
19253;SDS011;9761;50.926;5.330;2022-11-27T12:08:39;6.43;;;4.47;;
19253;SDS011;9761;50.926;5.330;2022-11-27T12:11:16;5.43;;;4.27;;
19253;SDS011;9761;50.926;5.330;2022-11-27T12:13:51;6.63;;;4.63;;
19253;SDS011;9761;50.926;5.330;2022-11-27T12:16:31;7.63;;;5.00;;
19253;SDS011;9761;50.926;5.330;2022-11-27T12:19:16;10.03;;;4.57;;
19253;SDS011;9761;50.926;5.330;2022-11-27T12:22:01;4.97;;;4.10;;
19253;SDS011;9761;50.926;5.330;2022-11-27T12:24:38;5.93;;;4.23;;
19253;SDS011;9761;50.926;5.330;2022-11-27T12:27:19;6.60;;;4.07;;
19253;SDS011;9761;50.926;5.330;2022-11-27T12:32:57;8.83;;;5.40;;
19253;SDS011;9761;50.926;5.330;2022-11-27T12:35:42;5.63;;;3.80;;
19253;SDS011;9761;50.926;5.330;2022-11-27T12:38:21;6.63;;;4.73;;
19253;SDS011;9761;50.926;5.330;2022-11-27T12:43:51;6.63;;;4.40;;
19253;SDS011;9761;50.926;5.330;2022-11-27T12:46:25;5.73;;;3.87;;
19253;SDS011;9761;50.926;5.330;2022-11-27T12:49:03;4.97;;;3.93;;
19253;SDS011;9761;50.926;5.330;2022-11-27T12:51:38;6.50;;;4.07;;
19253;SDS011;9761;50.926;5.330;2022-11-27T12:54:12;5.03;;;3.77;;
19253;SDS011;9761;50.926;5.330;2022-11-27T12:56:44;5.90;;;3.60;;
19253;SDS011;9761;50.926;5.330;2022-11-27T12:59:15;7.77;;;4.37;;
19253;SDS011;9761;50.926;5.330;2022-11-27T13:01:46;5.70;;;4.43;;
19253;SDS011;9761;50.926;5.330;2022-11-27T13:04:20;5.40;;;4.00;;
19253;SDS011;9761;50.926;5.330;2022-11-27T13:06:52;5.83;;;4.53;;
19253;SDS011;9761;50.926;5.330;2022-11-27T13:09:26;5.70;;;3.73;;
19253;SDS011;9761;50.926;5.330;2022-11-27T13:12:02;5.60;;;3.87;;
19253;SDS011;9761;50.926;5.330;2022-11-27T13:14:29;4.97;;;3.33;;
19253;SDS011;9761;50.926;5.330;2022-11-27T13:17:01;6.10;;;4.27;;
19253;SDS011;9761;50.926;5.330;2022-11-27T13:19:32;6.97;;;4.47;;
19253;SDS011;9761;50.926;5.330;2022-11-27T13:22:05;5.13;;;3.90;;
19253;SDS011;9761;50.926;5.330;2022-11-27T13:24:36;7.13;;;4.93;;
19253;SDS011;9761;50.926;5.330;2022-11-27T13:27:05;5.40;;;4.47;;
19253;SDS011;9761;50.926;5.330;2022-11-27T13:29:36;9.37;;;4.97;;
19253;SDS011;9761;50.926;5.330;2022-11-27T13:32:08;6.83;;;4.27;;
19253;SDS011;9761;50.926;5.330;2022-11-27T13:34:46;7.90;;;4.50;;
19253;SDS011;9761;50.926;5.330;2022-11-27T13:37:23;6.93;;;5.03;;
19253;SDS011;9761;50.926;5.330;2022-11-27T13:40:03;6.63;;;4.87;;
19253;SDS011;9761;50.926;5.330;2022-11-27T13:42:42;9.53;;;5.07;;
19253;SDS011;9761;50.926;5.330;2022-11-27T13:45:17;7.83;;;4.87;;
19253;SDS011;9761;50.926;5.330;2022-11-27T13:50:23;7.60;;;4.63;;
19253;SDS011;9761;50.926;5.330;2022-11-27T13:52:51;6.13;;;5.33;;
19253;SDS011;9761;50.926;5.330;2022-11-27T13:55:24;14.23;;;6.03;;
19253;SDS011;9761;50.926;5.330;2022-11-27T13:57:54;8.07;;;5.53;;
19253;SDS011;9761;50.926;5.330;2022-11-27T14:00:30;7.13;;;5.53;;
19253;SDS011;9761;50.926;5.330;2022-11-27T14:02:59;7.50;;;5.27;;
19253;SDS011;9761;50.926;5.330;2022-11-27T14:05:35;7.87;;;5.63;;
19253;SDS011;9761;50.926;5.330;2022-11-27T14:08:14;8.70;;;5.97;;
19253;SDS011;9761;50.926;5.330;2022-11-27T14:10:48;9.83;;;5.57;;
19253;SDS011;9761;50.926;5.330;2022-11-27T14:13:17;8.90;;;5.93;;
19253;SDS011;9761;50.926;5.330;2022-11-27T14:15:55;10.17;;;6.20;;
19253;SDS011;9761;50.926;5.330;2022-11-27T14:18:25;8.40;;;5.80;;
19253;SDS011;9761;50.926;5.330;2022-11-27T14:20:56;7.30;;;5.40;;
19253;SDS011;9761;50.926;5.330;2022-11-27T14:23:30;9.63;;;5.47;;
19253;SDS011;9761;50.926;5.330;2022-11-27T14:26:05;7.13;;;5.13;;
19253;SDS011;9761;50.926;5.330;2022-11-27T14:28:44;8.33;;;5.00;;
19253;SDS011;9761;50.926;5.330;2022-11-27T14:31:20;7.77;;;4.80;;
19253;SDS011;9761;50.926;5.330;2022-11-27T14:33:51;7.30;;;5.47;;
19253;SDS011;9761;50.926;5.330;2022-11-27T14:36:21;8.50;;;5.53;;
19253;SDS011;9761;50.926;5.330;2022-11-27T14:38:49;8.07;;;5.43;;
19253;SDS011;9761;50.926;5.330;2022-11-27T14:41:18;11.67;;;6.17;;
19253;SDS011;9761;50.926;5.330;2022-11-27T14:43:46;9.17;;;6.40;;
19253;SDS011;9761;50.926;5.330;2022-11-27T14:46:14;7.20;;;6.00;;
19253;SDS011;9761;50.926;5.330;2022-11-27T14:48:43;7.60;;;5.73;;
19253;SDS011;9761;50.926;5.330;2022-11-27T14:51:13;6.87;;;5.43;;
19253;SDS011;9761;50.926;5.330;2022-11-27T14:53:44;8.90;;;6.07;;
19253;SDS011;9761;50.926;5.330;2022-11-27T14:56:12;10.70;;;6.33;;
19253;SDS011;9761;50.926;5.330;2022-11-27T14:58:42;10.50;;;6.20;;
19253;SDS011;9761;50.926;5.330;2022-11-27T15:01:20;9.20;;;6.07;;
19253;SDS011;9761;50.926;5.330;2022-11-27T15:03:55;7.27;;;5.80;;
19253;SDS011;9761;50.926;5.330;2022-11-27T15:06:23;7.83;;;6.03;;
19253;SDS011;9761;50.926;5.330;2022-11-27T15:08:53;10.73;;;5.60;;
19253;SDS011;9761;50.926;5.330;2022-11-27T15:11:20;8.47;;;5.60;;
19253;SDS011;9761;50.926;5.330;2022-11-27T15:13:50;11.67;;;5.93;;
19253;SDS011;9761;50.926;5.330;2022-11-27T15:16:20;10.70;;;5.73;;
19253;SDS011;9761;50.926;5.330;2022-11-27T15:18:49;9.20;;;5.90;;
19253;SDS011;9761;50.926;5.330;2022-11-27T15:21:20;8.83;;;6.00;;
19253;SDS011;9761;50.926;5.330;2022-11-27T15:23:50;8.67;;;6.37;;
19253;SDS011;9761;50.926;5.330;2022-11-27T15:26:33;11.00;;;6.03;;
19253;SDS011;9761;50.926;5.330;2022-11-27T15:29:04;9.93;;;6.47;;